Time;durP1;ratioP1;P1;durP2;ratioP2;P2;SDS_P1;SDS_P2;PMS_P1;PMS_P2;Temp;Humidity;BMP_temperature;BMP_pressure;BME280_temperature;BME280_humidity;BME280_pressure;Samples;Min_cycle;Max_cycle;Signal;HPM_P1;HPM_P2
2022/09/11 00:01:15;;;;;;;3.35;1.45;;;;;;;20.37;100.00;96368.63;5144080;27;20089;-55
2022/09/11 00:03:45;;;;;;;4.30;1.38;;;;;;;21.22;100.00;96364.06;5154411;27;20102;-51
2022/09/11 00:06:17;;;;;;;2.92;1.42;;;;;;;21.07;100.00;96361.66;5142125;27;20124;-48
2022/09/11 00:08:59;;;;;;;5.28;1.50;;;;;;;20.99;100.00;96358.38;5138795;27;20828;-51
2022/09/11 00:11:29;;;;;;;2.08;1.38;;;;;;;20.93;100.00;96361.94;5140777;27;20441;-47
2022/09/11 00:13:58;;;;;;;3.05;1.50;;;;;;;20.79;100.00;96355.78;5150929;27;20079;-48
2022/09/11 00:16:28;;;;;;;2.55;1.33;;;;;;;20.81;100.00;96361.75;5141447;27;20078;-52
2022/09/11 00:18:59;;;;;;;3.08;1.48;;;;;;;21.46;100.00;96359.81;5139806;27;20093;-54
2022/09/11 00:21:28;;;;;;;2.80;1.35;;;;;;;21.41;100.00;96356.97;5137473;27;20075;-51
2022/09/11 00:23:58;;;;;;;5.70;1.60;;;;;;;20.96;100.00;96359.66;5141035;27;20081;-48
2022/09/11 00:26:26;;;;;;;1.38;1.17;;;;;;;20.80;100.00;96365.47;5138711;27;20074;-48
2022/09/11 00:28:56;;;;;;;1.67;1.00;;;;;;;20.67;100.00;96362.81;5144167;27;20082;-54
2022/09/11 00:31:26;;;;;;;3.05;1.25;;;;;;;20.85;100.00;96361.13;5143842;27;20087;-53
2022/09/11 00:33:55;;;;;;;2.17;1.33;;;;;;;20.86;100.00;96359.28;5152260;27;20079;-49
2022/09/11 00:36:25;;;;;;;2.75;1.30;;;;;;;21.03;100.00;96364.97;5143722;27;20094;-49
2022/09/11 00:38:54;;;;;;;1.60;1.20;;;;;;;21.00;100.00;96366.22;5148339;27;20086;-46
2022/09/11 00:41:27;;;;;;;2.42;1.30;;;;;;;20.87;100.00;96366.28;5140231;27;20492;-53
2022/09/11 00:44:01;;;;;;;5.43;1.40;;;;;;;20.30;100.00;96367.81;5135640;27;20086;-51
2022/09/11 00:46:34;;;;;;;2.75;1.40;;;;;;;21.01;100.00;96356.31;5139175;27;20101;-52
2022/09/11 00:49:10;;;;;;;5.38;1.50;;;;;;;21.19;100.00;96358.28;5146179;27;20547;-49
2022/09/11 00:51:39;;;;;;;2.63;1.23;;;;;;;20.59;100.00;96362.03;5134471;27;20062;-49
2022/09/11 00:54:11;;;;;;;5.00;1.45;;;;;;;20.77;100.00;96358.66;5140106;27;20100;-54
2022/09/11 00:56:42;;;;;;;1.70;1.13;;;;;;;20.45;100.00;96356.88;5137052;27;20079;-48
2022/09/11 00:59:11;;;;;;;1.92;1.20;;;;;;;20.34;100.00;96361.03;5147014;27;20081;-46
2022/09/11 01:01:40;;;;;;;3.72;1.30;;;;;;;20.42;100.00;96350.09;5138475;27;20089;-49
2022/09/11 01:04:09;;;;;;;4.63;1.50;;;;;;;21.08;100.00;96349.88;5148942;27;20495;-52
2022/09/11 01:06:37;;;;;;;3.75;1.30;;;;;;;20.49;100.00;96345.53;5147388;27;20077;-47
2022/09/11 01:09:05;;;;;;;3.63;1.73;;;;;;;20.47;100.00;96360.97;5145232;27;20070;-46
2022/09/11 01:11:44;;;;;;;2.70;1.40;;;;;;;20.06;100.00;96353.19;5133548;27;20506;-51
2022/09/11 01:14:23;;;;;;;1.48;1.20;;;;;;;20.69;100.00;96356.22;5138194;27;20089;-49
2022/09/11 01:16:56;;;;;;;4.32;1.40;;;;;;;20.38;100.00;96359.56;5145778;27;20138;-53
2022/09/11 01:19:37;;;;;;;2.63;1.23;;;;;;;20.22;100.00;96351.97;5147228;27;20496;-56
2022/09/11 01:22:21;;;;;;;5.75;1.30;;;;;;;20.09;100.00;96345.56;5131787;27;20079;-50
2022/09/11 01:25:00;;;;;;;2.45;1.27;;;;;;;20.40;100.00;96349.44;5143208;27;20070;-52
2022/09/11 01:27:38;;;;;;;2.33;1.27;;;;;;;20.09;100.00;96353.59;5144649;27;20087;-53
2022/09/11 01:30:09;;;;;;;4.15;1.50;;;;;;;20.71;100.00;96337.25;5139266;27;20096;-51
2022/09/11 01:33:01;;;;;;;1.77;1.30;;;;;;;20.56;100.00;96338.31;5140275;27;20087;-52
2022/09/11 01:35:40;;;;;;;3.42;1.30;;;;;;;20.41;100.00;96340.41;5140140;27;20070;-55
2022/09/11 01:38:13;;;;;;;4.05;1.30;;;;;;;20.08;100.00;96345.78;5136060;27;20075;-50
2022/09/11 01:40:48;;;;;;;2.53;1.30;;;;;;;20.02;100.00;96339.41;5139893;27;20171;-53
2022/09/11 01:43:21;;;;;;;2.65;1.40;;;;;;;20.31;100.00;96334.66;5135070;27;20077;-52
2022/09/11 01:45:50;;;;;;;3.53;1.40;;;;;;;20.55;100.00;96339.38;5139898;27;20088;-51
2022/09/11 01:48:22;;;;;;;5.55;1.27;;;;;;;19.89;100.00;96350.13;5136636;27;20058;-54
2022/09/11 01:50:53;;;;;;;4.18;1.60;;;;;;;20.38;100.00;96338.16;5137451;27;20502;-53
2022/09/11 01:53:23;;;;;;;4.22;1.50;;;;;;;19.88;100.00;96348.47;5139316;27;20070;-55
2022/09/11 01:55:54;;;;;;;1.98;1.35;;;;;;;20.42;100.00;96346.59;5139579;27;20429;-52
2022/09/11 01:58:27;;;;;;;4.10;1.52;;;;;;;20.36;100.00;96345.56;5136494;27;20067;-50
2022/09/11 02:00:59;;;;;;;2.67;1.40;;;;;;;20.30;100.00;96339.19;5135388;27;20085;-47
2022/09/11 02:03:31;;;;;;;4.40;1.40;;;;;;;20.37;100.00;96350.72;5139099;27;20082;-50
2022/09/11 02:06:01;;;;;;;2.25;1.40;;;;;;;20.59;100.00;96342.44;5141702;27;20081;-48
2022/09/11 02:08:35;;;;;;;5.50;1.60;;;;;;;20.85;100.00;96341.53;5139373;27;20469;-49
2022/09/11 02:11:05;;;;;;;4.00;1.35;;;;;;;20.15;100.00;96347.44;5138936;27;20656;-52
2022/09/11 02:13:40;;;;;;;3.88;1.50;;;;;;;20.21;100.00;96350.31;5139959;27;20085;-49
2022/09/11 02:16:16;;;;;;;5.45;1.70;;;;;;;20.56;100.00;96342.88;5135205;27;20537;-48
2022/09/11 02:18:52;;;;;;;2.67;1.50;;;;;;;20.39;100.00;96332.56;5140766;27;20457;-54
2022/09/11 02:21:21;;;;;;;2.20;1.40;;;;;;;20.68;100.00;96335.84;5136435;27;20059;-47
2022/09/11 02:23:49;;;;;;;2.72;1.35;;;;;;;20.17;100.00;96344.56;5135457;27;20042;-47
2022/09/11 02:26:18;;;;;;;2.60;1.30;;;;;;;19.93;100.00;96332.63;5137406;27;20078;-53
2022/09/11 02:28:48;;;;;;;4.60;1.70;;;;;;;19.63;100.00;96345.59;5135726;27;20477;-51
2022/09/11 02:31:18;;;;;;;2.20;1.30;;;;;;;19.50;100.00;96337.50;5139649;27;20625;-51
2022/09/11 02:33:47;;;;;;;3.45;1.65;;;;;;;20.46;100.00;96332.56;5137442;27;20070;-49
2022/09/11 02:36:29;;;;;;;3.22;1.27;;;;;;;20.19;100.00;96337.13;5136907;27;20081;-48
2022/09/11 02:39:10;;;;;;;2.08;1.30;;;;;;;19.34;100.00;96338.69;5136238;27;20125;-46
2022/09/11 02:41:46;;;;;;;4.53;1.50;;;;;;;20.24;100.00;96334.66;5138978;27;20066;-47
2022/09/11 02:44:24;;;;;;;3.63;1.40;;;;;;;20.55;100.00;96328.66;5139206;27;20191;-52
2022/09/11 02:47:05;;;;;;;3.25;1.30;;;;;;;20.59;100.00;96332.56;5131523;27;20039;-54
2022/09/11 02:49:43;;;;;;;4.82;1.50;;;;;;;19.72;100.00;96331.00;5143112;27;20504;-50
2022/09/11 02:52:20;;;;;;;3.20;1.55;;;;;;;21.17;100.00;96328.22;5143612;27;20079;-53
2022/09/11 02:54:54;;;;;;;2.72;1.50;;;;;;;20.73;100.00;96325.28;5140793;27;20475;-47
2022/09/11 02:57:28;;;;;;;3.58;1.60;;;;;;;19.91;100.00;96330.16;5142013;27;20082;-49
2022/09/11 03:00:00;;;;;;;2.85;1.55;;;;;;;20.85;100.00;96318.25;5140292;27;20082;-51
2022/09/11 03:02:29;;;;;;;2.88;1.58;;;;;;;21.24;100.00;96320.94;5143093;27;20067;-46
2022/09/11 03:04:58;;;;;;;3.77;1.63;;;;;;;21.04;100.00;96323.72;5141191;27;20081;-51
2022/09/11 03:07:26;;;;;;;2.63;1.60;;;;;;;20.45;100.00;96332.78;5142060;27;20097;-49
2022/09/11 03:09:54;;;;;;;3.00;1.55;;;;;;;21.23;100.00;96319.28;5138876;27;20062;-51
2022/09/11 03:12:22;;;;;;;2.85;1.63;;;;;;;21.04;100.00;96321.03;5144453;27;20085;-49
2022/09/11 03:14:51;;;;;;;3.05;1.33;;;;;;;20.62;100.00;96328.63;5136990;27;20074;-48
2022/09/11 03:17:20;;;;;;;2.58;1.70;;;;;;;20.43;100.00;96329.47;5140451;27;20066;-48
2022/09/11 03:19:49;;;;;;;4.03;1.70;;;;;;;20.58;100.00;96320.19;5142025;27;20484;-50
2022/09/11 03:22:17;;;;;;;2.20;1.67;;;;;;;21.07;100.00;96318.75;5144733;27;20503;-47
2022/09/11 03:24:46;;;;;;;2.20;1.40;;;;;;;20.51;100.00;96319.41;5142601;27;20464;-48
2022/09/11 03:27:16;;;;;;;2.67;1.50;;;;;;;20.02;100.00;96325.19;5143922;27;20082;-51
2022/09/11 03:29:45;;;;;;;2.65;1.50;;;;;;;20.77;100.00;96312.28;5148224;27;20071;-47
2022/09/11 03:32:14;;;;;;;3.47;1.90;;;;;;;20.42;100.00;96317.13;5138455;27;20121;-52
2022/09/11 03:34:46;;;;;;;4.07;1.80;;;;;;;20.51;100.00;96314.03;5141041;27;20070;-48
2022/09/11 03:37:14;;;;;;;2.97;1.50;;;;;;;20.65;100.00;96309.47;5141571;27;20074;-48
2022/09/11 03:39:43;;;;;;;4.03;1.60;;;;;;;20.40;100.00;96306.59;5143413;27;20085;-46
2022/09/11 03:42:12;;;;;;;3.30;1.40;;;;;;;20.24;100.00;96310.56;5141176;27;20062;-49
2022/09/11 03:44:40;;;;;;;4.13;1.55;;;;;;;20.50;100.00;96316.88;5147540;27;20547;-50
2022/09/11 03:47:08;;;;;;;3.15;1.45;;;;;;;20.94;100.00;96316.13;5137069;27;20090;-50
2022/09/11 03:49:37;;;;;;;5.60;1.67;;;;;;;20.51;100.00;96315.88;5141066;27;20070;-50
2022/09/11 03:52:06;;;;;;;5.07;1.63;;;;;;;20.22;100.00;96317.16;5142488;27;20075;-47
2022/09/11 03:54:34;;;;;;;1.30;1.20;;;;;;;20.56;100.00;96316.91;5145700;27;20543;-52
2022/09/11 03:57:03;;;;;;;3.90;1.40;;;;;;;20.01;100.00;96323.56;5139398;27;20504;-49
2022/09/11 03:59:31;;;;;;;3.40;1.50;;;;;;;20.26;100.00;96310.34;5143167;27;20082;-51
2022/09/11 04:02:00;;;;;;;1.92;1.45;;;;;;;20.45;100.00;96303.31;5137533;27;20441;-57
2022/09/11 04:04:28;;;;;;;2.83;1.60;;;;;;;20.28;100.00;96305.63;5142354;27;20089;-46
2022/09/11 04:06:57;;;;;;;2.45;1.60;;;;;;;20.42;100.00;96306.41;5139706;27;20070;-52
2022/09/11 04:09:26;;;;;;;3.38;1.42;;;;;;;20.80;100.00;96304.66;5139095;27;20070;-52
2022/09/11 04:11:55;;;;;;;3.50;1.63;;;;;;;20.04;100.00;96309.78;5138222;27;20314;-51
2022/09/11 04:14:23;;;;;;;4.18;1.60;;;;;;;20.74;100.00;96300.13;5143237;27;20074;-55
2022/09/11 04:16:52;;;;;;;3.95;1.63;;;;;;;20.65;100.00;96308.63;5141373;27;20155;-54
2022/09/11 04:19:22;;;;;;;2.40;1.50;;;;;;;20.25;100.00;96312.19;5136260;27;20452;-54
2022/09/11 04:21:51;;;;;;;2.63;1.60;;;;;;;20.78;100.00;96306.72;5135848;27;20452;-47
2022/09/11 04:24:19;;;;;;;3.58;1.58;;;;;;;20.44;100.00;96310.53;5142029;27;20496;-51
2022/09/11 04:26:49;;;;;;;2.78;1.48;;;;;;;20.43;100.00;96306.19;5141496;27;20070;-47
2022/09/11 04:29:17;;;;;;;2.57;1.60;;;;;;;20.00;100.00;96305.88;5136712;27;20469;-50
2022/09/11 04:31:45;;;;;;;1.42;1.33;;;;;;;20.14;100.00;96307.50;5139505;27;20126;-46
2022/09/11 04:34:14;;;;;;;3.30;1.60;;;;;;;20.27;100.00;96309.34;5142364;27;20141;-48
2022/09/11 04:36:42;;;;;;;2.75;1.40;;;;;;;20.15;100.00;96303.78;5140142;27;20156;-53
2022/09/11 04:39:11;;;;;;;2.83;1.55;;;;;;;20.40;100.00;96303.91;5141500;27;20480;-48
2022/09/11 04:41:39;;;;;;;3.00;1.60;;;;;;;19.98;100.00;96310.59;5139919;27;20539;-50
2022/09/11 04:44:09;;;;;;;3.22;1.60;;;;;;;20.65;100.00;96308.63;5138389;27;20059;-50
2022/09/11 04:46:37;;;;;;;2.55;1.77;;;;;;;20.89;100.00;96309.75;5139345;27;20067;-49
2022/09/11 04:49:07;;;;;;;2.05;1.50;;;;;;;20.29;100.00;96313.44;5138706;27;20070;-53
2022/09/11 04:51:37;;;;;;;3.88;1.60;;;;;;;20.09;100.00;96315.31;5142868;27;20524;-56
2022/09/11 04:54:05;;;;;;;2.08;1.55;;;;;;;20.10;100.00;96317.78;5140975;27;20066;-54
2022/09/11 04:56:36;;;;;;;3.63;1.60;;;;;;;20.03;100.00;96311.63;5146280;27;20074;-48
2022/09/11 04:59:08;;;;;;;5.15;1.63;;;;;;;20.54;100.00;96315.44;5138513;27;20059;-50
2022/09/11 05:01:38;;;;;;;3.95;1.50;;;;;;;20.43;100.00;96316.91;5142641;27;20063;-53
2022/09/11 05:04:07;;;;;;;6.70;2.15;;;;;;;20.75;100.00;96314.34;5136996;27;20075;-49
2022/09/11 05:06:36;;;;;;;4.82;1.50;;;;;;;20.07;100.00;96318.22;5141399;27;20058;-52
2022/09/11 05:09:06;;;;;;;2.08;1.55;;;;;;;20.50;100.00;96317.72;5139308;27;20070;-52
2022/09/11 05:11:35;;;;;;;2.47;1.70;;;;;;;20.45;100.00;96317.53;5140404;27;20063;-47
2022/09/11 05:14:03;;;;;;;5.18;1.60;;;;;;;20.30;100.00;96319.59;5137693;27;20491;-48
2022/09/11 05:16:33;;;;;;;3.15;1.48;;;;;;;20.10;100.00;96322.34;5143724;27;20067;-48
2022/09/11 05:19:04;;;;;;;1.85;1.50;;;;;;;20.32;100.00;96315.69;5139182;27;20437;-51
2022/09/11 05:21:33;;;;;;;2.70;1.42;;;;;;;20.24;100.00;96318.59;5139763;27;20051;-50
2022/09/11 05:24:03;;;;;;;2.60;1.33;;;;;;;19.48;100.00;96332.38;5138451;27;20092;-48
2022/09/11 05:26:33;;;;;;;2.95;1.50;;;;;;;19.84;100.00;96328.50;5139577;27;20090;-47
2022/09/11 05:29:02;;;;;;;;;;;;;;;20.11;100.00;96322.09;5142503;27;20082;-54
2022/09/11 05:31:31;;;;;;;2.75;1.77;;;;;;;19.94;100.00;96317.41;5137874;27;19962;-49
2022/09/11 05:34:00;;;;;;;2.63;1.60;;;;;;;20.49;100.00;96316.06;5142241;27;20100;-48
2022/09/11 05:36:30;;;;;;;2.65;1.40;;;;;;;20.11;100.00;96322.09;5137242;27;20070;-46
2022/09/11 05:38:58;;;;;;;;;;;;;;;20.44;100.00;96320.38;5141540;27;20073;-49
2022/09/11 05:41:27;;;;;;;3.10;1.65;;;;;;;20.52;100.00;96313.00;5135958;27;19963;-50
2022/09/11 05:43:55;;;;;;;2.15;1.40;;;;;;;20.48;100.00;96314.44;5138843;27;20086;-48
2022/09/11 05:46:24;;;;;;;3.17;1.50;;;;;;;20.44;100.00;96328.44;5137663;27;20086;-48
2022/09/11 05:48:52;;;;;;;2.63;1.58;;;;;;;20.27;100.00;96328.06;5137355;27;20067;-50
2022/09/11 05:51:21;;;;;;;4.25;1.73;;;;;;;20.79;100.00;96327.13;5137686;27;20070;-49
2022/09/11 05:53:54;;;;;;;2.92;1.30;;;;;;;20.69;100.00;96333.97;5140841;27;20113;-49
2022/09/11 05:56:24;;;;;;;2.42;1.30;;;;;;;20.87;100.00;96334.09;5137318;27;20073;-50
2022/09/11 05:58:52;;;;;;;2.13;1.42;;;;;;;20.40;100.00;96341.41;5137011;27;20552;-48
2022/09/11 06:01:22;;;;;;;1.48;1.35;;;;;;;20.49;100.00;96340.16;5136738;27;20089;-53
2022/09/11 06:03:51;;;;;;;2.58;1.45;;;;;;;20.24;100.00;96347.22;5141651;27;20547;-56
2022/09/11 06:06:21;;;;;;;1.98;1.38;;;;;;;20.62;100.00;96344.72;5140215;27;20070;-47
2022/09/11 06:08:50;;;;;;;4.82;2.00;;;;;;;20.33;100.00;96354.00;5146240;27;20062;-49
2022/09/11 06:11:21;;;;;;;2.17;1.42;;;;;;;20.58;100.00;96354.22;5139614;27;20093;-50
2022/09/11 06:13:50;;;;;;;2.40;1.60;;;;;;;20.73;100.00;96353.94;5134547;27;20079;-51
2022/09/11 06:16:20;;;;;;;4.25;1.50;;;;;;;20.29;100.00;96355.47;5138141;27;20984;-48
2022/09/11 06:18:49;;;;;;;3.45;1.50;;;;;;;20.49;100.00;96363.47;5134100;27;20485;-49
2022/09/11 06:21:19;;;;;;;2.22;1.50;;;;;;;20.10;100.00;96370.53;5139647;27;20090;-47
2022/09/11 06:23:48;;;;;;;3.70;1.60;;;;;;;20.29;100.00;96372.34;5143698;27;20085;-55
2022/09/11 06:26:18;;;;;;;2.30;1.40;;;;;;;19.64;100.00;96364.09;5137515;27;20107;-53
2022/09/11 06:28:49;;;;;;;4.13;1.80;;;;;;;19.67;100.00;96371.72;5141826;27;20042;-54
2022/09/11 06:31:19;;;;;;;3.28;1.70;;;;;;;19.74;100.00;96374.41;5138553;27;21013;-51
2022/09/11 06:33:49;;;;;;;2.33;1.58;;;;;;;19.45;100.00;96379.06;5141390;27;20551;-48
2022/09/11 06:36:19;;;;;;;3.85;1.75;;;;;;;20.24;100.00;96371.34;5135617;27;20086;-52
2022/09/11 06:38:53;;;;;;;2.43;1.63;;;;;;;20.31;100.00;96374.81;5139410;27;20062;-54
2022/09/11 06:41:21;;;;;;;4.35;1.75;;;;;;;20.06;100.00;96377.28;5131431;27;20083;-49
2022/09/11 06:43:52;;;;;;;3.78;1.80;;;;;;;19.78;100.00;96374.81;5137172;27;20082;-50
2022/09/11 06:46:22;;;;;;;2.67;1.90;;;;;;;19.82;100.00;96378.72;5136856;27;20066;-53
2022/09/11 06:48:51;;;;;;;3.97;2.00;;;;;;;20.20;100.00;96370.94;5137292;27;20078;-49
2022/09/11 06:51:20;;;;;;;3.28;1.67;;;;;;;19.83;100.00;96380.41;5134845;27;20480;-47
2022/09/11 06:53:49;;;;;;;2.95;1.75;;;;;;;20.12;100.00;96377.28;5136286;27;20066;-49
2022/09/11 06:56:18;;;;;;;3.85;1.80;;;;;;;19.61;100.00;96377.88;5140999;27;20083;-54
2022/09/11 06:58:46;;;;;;;4.53;1.90;;;;;;;20.13;100.00;96381.63;5138783;27;20780;-49
2022/09/11 07:01:18;;;;;;;3.97;2.00;;;;;;;20.48;100.00;96384.06;5138005;27;20071;-51
2022/09/11 07:03:48;;;;;;;3.20;2.08;;;;;;;20.26;100.00;96385.31;5140993;27;20071;-49
2022/09/11 07:06:18;;;;;;;4.15;2.10;;;;;;;19.93;100.00;96383.50;5137511;27;20937;-51
2022/09/11 07:08:51;;;;;;;3.40;1.85;;;;;;;19.81;100.00;96385.13;5141151;27;20085;-50
2022/09/11 07:11:19;;;;;;;2.40;1.95;;;;;;;20.30;100.00;96381.19;5137387;27;20097;-53
2022/09/11 07:13:48;;;;;;;3.65;2.05;;;;;;;19.94;100.00;96385.13;5137913;27;20671;-54
2022/09/11 07:16:17;;;;;;;8.25;1.80;;;;;;;20.67;100.00;96386.94;5139697;27;20081;-52
2022/09/11 07:18:47;;;;;;;2.20;1.80;;;;;;;20.54;100.00;96382.44;5138998;27;20097;-49
2022/09/11 07:21:17;;;;;;;2.55;1.58;;;;;;;20.42;100.00;96389.44;5137384;27;20511;-49
2022/09/11 07:23:48;;;;;;;4.05;2.03;;;;;;;20.47;100.00;96382.41;5133931;27;20085;-51
2022/09/11 07:26:16;;;;;;;;;;;;;;;20.53;100.00;96395.00;5139183;27;20453;-51
2022/09/11 07:28:47;;;;;;;6.75;2.35;;;;;;;20.56;100.00;96391.09;5135024;27;19966;-50
2022/09/11 07:31:19;;;;;;;3.33;1.60;;;;;;;20.28;100.00;96386.78;5141367;27;20098;-49
2022/09/11 07:33:49;;;;;;;3.10;1.90;;;;;;;20.64;100.00;96398.91;5145435;27;20078;-52
2022/09/11 07:36:19;;;;;;;2.72;1.90;;;;;;;20.92;100.00;96387.91;5137908;27;20089;-53
2022/09/11 07:38:49;;;;;;;3.08;1.92;;;;;;;21.28;100.00;96398.06;5138122;27;20082;-51
2022/09/11 07:41:18;;;;;;;4.15;1.90;;;;;;;21.30;100.00;96401.38;5151029;27;20471;-53
2022/09/11 07:43:47;;;;;;;2.03;1.83;;;;;;;20.80;100.00;96406.50;5147045;27;20074;-51
2022/09/11 07:46:15;;;;;;;3.63;2.00;;;;;;;21.09;100.00;96410.53;5149568;27;20555;-52
2022/09/11 07:48:45;;;;;;;3.28;2.00;;;;;;;21.13;100.00;96410.09;5142191;27;20074;-49
2022/09/11 07:51:15;;;;;;;2.50;2.30;;;;;;;20.97;100.00;96411.41;5144399;27;20077;-47
2022/09/11 07:53:44;;;;;;;3.90;2.30;;;;;;;21.09;100.00;96417.75;5146083;27;20491;-48
2022/09/11 07:56:15;;;;;;;4.20;2.17;;;;;;;21.13;100.00;96426.19;5143100;27;20090;-46
2022/09/11 07:58:43;;;;;;;3.92;2.30;;;;;;;21.01;100.00;96429.53;5148982;27;20551;-51
2022/09/11 08:01:13;;;;;;;3.05;2.15;;;;;;;20.15;100.00;96426.94;5141732;27;20078;-56
2022/09/11 08:03:42;;;;;;;2.72;2.28;;;;;;;21.19;100.00;96425.34;5140470;27;20086;-53
2022/09/11 08:06:13;;;;;;;3.28;2.20;;;;;;;21.55;100.00;96427.50;5140822;27;20062;-50
2022/09/11 08:08:52;;;;;;;4.30;2.15;;;;;;;21.27;100.00;96435.84;5147524;27;20524;-53
2022/09/11 08:11:21;;;;;;;4.05;2.53;;;;;;;21.55;100.00;96444.41;5141039;27;20078;-56
2022/09/11 08:13:50;;;;;;;4.55;2.53;;;;;;;21.55;100.00;96443.59;5134589;27;20078;-53
2022/09/11 08:16:19;;;;;;;3.55;2.22;;;;;;;21.13;100.00;96440.44;5142621;27;20083;-51
2022/09/11 08:18:48;;;;;;;3.17;2.42;;;;;;;20.97;100.00;96441.72;5138786;27;20074;-51
2022/09/11 08:21:18;;;;;;;3.03;2.40;;;;;;;21.62;100.00;96440.88;5149723;27;20074;-52
2022/09/11 08:23:47;;;;;;;4.97;2.78;;;;;;;22.04;100.00;96450.94;5137114;27;20106;-52
2022/09/11 08:26:20;;;;;;;2.78;2.45;;;;;;;21.91;100.00;96456.38;5143974;27;20155;-55
2022/09/11 08:28:50;;;;;;;4.10;2.55;;;;;;;21.14;100.00;96458.16;5138146;27;20078;-54
2022/09/11 08:31:21;;;;;;;2.78;2.28;;;;;;;21.10;100.00;96468.50;5141673;27;20066;-52
2022/09/11 08:33:49;;;;;;;;;;;;;;;21.14;100.00;96462.72;5145495;27;20070;-53
2022/09/11 08:36:19;;;;;;;5.20;2.30;;;;;;;21.90;100.00;96470.03;5139815;27;19954;-53
2022/09/11 08:38:47;;;;;;;3.35;2.30;;;;;;;21.93;100.00;96464.25;5149688;27;20438;-54
2022/09/11 08:41:27;;;;;;;3.97;2.78;;;;;;;21.71;100.00;96469.94;5143900;27;20047;-51
2022/09/11 08:43:57;;;;;;;4.60;2.53;;;;;;;22.34;100.00;96462.97;5135979;27;20075;-48
2022/09/11 08:46:29;;;;;;;3.95;2.47;;;;;;;22.24;100.00;96469.63;5141417;27;20062;-52
2022/09/11 08:49:04;;;;;;;4.55;2.75;;;;;;;21.62;100.00;96468.53;5141454;27;20611;-51
2022/09/11 08:51:34;;;;;;;3.90;2.50;;;;;;;22.24;100.00;96468.81;5132139;27;20465;-53
2022/09/11 08:54:03;;;;;;;3.67;2.80;;;;;;;21.26;100.00;96469.06;5144237;27;20070;-47
2022/09/11 08:56:33;;;;;;;3.67;2.63;;;;;;;22.82;100.00;96470.41;5143648;27;20085;-52
2022/09/11 08:59:13;;;;;;;4.43;2.70;;;;;;;21.73;100.00;96472.41;5141748;27;20089;-55
2022/09/11 09:01:47;;;;;;;4.18;2.70;;;;;;;21.65;100.00;96480.72;5136424;27;20082;-54
2022/09/11 09:04:26;;;;;;;5.63;3.00;;;;;;;21.73;100.00;96477.78;5141107;27;20079;-49
2022/09/11 09:07:03;;;;;;;4.03;3.10;;;;;;;21.21;100.00;96490.34;5143128;27;20086;-54
2022/09/11 09:09:41;;;;;;;4.55;3.20;;;;;;;22.04;100.00;96491.22;5133832;27;20085;-56
2022/09/11 09:12:16;;;;;;;3.85;3.20;;;;;;;21.26;100.00;96493.19;5138132;27;20092;-50
2022/09/11 09:14:54;;;;;;;4.05;3.05;;;;;;;21.41;100.00;96491.13;5141962;27;20414;-57
2022/09/11 09:17:26;;;;;;;5.07;3.78;;;;;;;21.84;100.00;96497.75;5137524;27;20070;-52
2022/09/11 09:20:00;;;;;;;3.75;3.05;;;;;;;21.41;100.00;96515.28;5138353;27;20108;-56
2022/09/11 09:22:37;;;;;;;4.78;3.58;;;;;;;21.60;100.00;96500.13;5141547;27;20063;-55
2022/09/11 09:25:10;;;;;;;5.93;3.40;;;;;;;22.10;100.00;96500.28;5137080;27;20078;-52
2022/09/11 09:27:43;;;;;;;4.88;3.88;;;;;;;21.86;100.00;96501.88;5144090;27;20730;-53
2022/09/11 09:30:15;;;;;;;5.50;4.22;;;;;;;21.96;100.00;96506.78;5141313;27;20071;-50
2022/09/11 09:32:47;;;;;;;5.57;4.00;;;;;;;22.35;100.00;96497.66;5136934;27;20101;-54
2022/09/11 09:35:19;;;;;;;4.30;3.85;;;;;;;22.48;100.00;96511.00;5126133;27;20555;-60
2022/09/11 09:37:49;;;;;;;6.55;4.05;;;;;;;22.03;100.00;96508.38;5137819;27;20083;-51
2022/09/11 09:40:18;;;;;;;5.38;4.03;;;;;;;20.63;100.00;96526.69;5134238;27;20067;-55
2022/09/11 09:43:12;;;;;;;4.95;4.03;;;;;;;21.31;100.00;96517.53;5131725;27;20101;-55
2022/09/11 09:45:54;;;;;;;5.50;3.85;;;;;;;21.15;100.00;96523.34;5139448;27;20075;-54
2022/09/11 09:48:22;;;;;;;5.50;4.05;;;;;;;21.78;100.00;96526.25;5136976;27;20144;-54
2022/09/11 09:50:51;;;;;;;5.05;3.83;;;;;;;21.82;100.00;96527.50;5145412;27;20082;-52
2022/09/11 09:53:28;;;;;;;5.35;3.90;;;;;;;21.75;100.00;96532.06;5133683;27;20070;-56
2022/09/11 09:55:58;;;;;;;6.43;3.97;;;;;;;22.52;100.00;96525.66;5137003;27;20087;-54
2022/09/11 09:58:28;;;;;;;;;;;;;;;22.78;100.00;96529.19;5139642;27;20073;-56
2022/09/11 10:00:56;;;;;;;5.28;4.00;;;;;;;22.82;100.00;96524.19;5135503;27;19989;-56
2022/09/11 10:03:25;;;;;;;5.57;3.90;;;;;;;22.93;100.00;96527.00;5146281;27;20473;-54
2022/09/11 10:05:55;;;;;;;6.63;4.03;;;;;;;23.68;100.00;96521.47;5141711;27;20517;-54
2022/09/11 10:08:35;;;;;;;4.30;3.70;;;;;;;23.69;100.00;96520.41;5131627;27;20083;-54
2022/09/11 10:11:05;;;;;;;4.65;3.30;;;;;;;22.83;100.00;96529.31;5134104;27;20047;-48
2022/09/11 10:13:36;;;;;;;3.72;3.05;;;;;;;23.07;100.00;96525.00;5136671;27;20079;-51
2022/09/11 10:16:19;;;;;;;4.63;3.10;;;;;;;23.13;100.00;96518.75;5137631;27;20082;-57
2022/09/11 10:18:47;;;;;;;4.10;2.75;;;;;;;22.33;100.00;96523.91;5135112;27;20070;-57
2022/09/11 10:21:24;;;;;;;4.20;3.20;;;;;;;22.71;100.00;96517.63;5132246;27;20105;-53
2022/09/11 10:23:55;;;;;;;4.88;3.55;;;;;;;23.01;100.00;96522.38;5133310;27;20069;-54
2022/09/11 10:26:27;;;;;;;4.28;3.88;;;;;;;23.13;100.00;96526.00;5135782;27;20469;-55
2022/09/11 10:28:59;;;;;;;4.60;4.15;;;;;;;22.88;100.00;96525.97;5135548;27;20066;-53
2022/09/11 10:31:28;;;;;;;5.18;4.07;;;;;;;22.89;100.00;96525.75;5131556;27;20062;-55
2022/09/11 10:33:58;;;;;;;5.85;4.03;;;;;;;22.91;100.00;96533.59;5137048;27;20446;-56
2022/09/11 10:36:28;;;;;;;4.77;4.20;;;;;;;23.60;100.00;96537.88;5139452;27;20461;-58
2022/09/11 10:38:58;;;;;;;5.17;3.83;;;;;;;23.21;100.00;96531.88;5139489;27;20085;-57
2022/09/11 10:41:27;;;;;;;5.20;3.83;;;;;;;23.06;100.00;96531.44;5136376;27;20089;-54
2022/09/11 10:43:59;;;;;;;4.35;3.95;;;;;;;23.35;100.00;96526.38;5135828;27;20108;-54
2022/09/11 10:46:33;;;;;;;5.70;4.38;;;;;;;23.44;100.00;96535.81;5137202;27;20082;-53
2022/09/11 10:49:16;;;;;;;4.57;4.18;;;;;;;23.76;100.00;96525.72;5133750;27;20079;-49
2022/09/11 10:51:58;;;;;;;5.43;4.03;;;;;;;24.17;100.00;96530.34;5143047;27;20074;-54
2022/09/11 10:54:53;;;;;;;4.10;3.67;;;;;;;24.63;100.00;96541.53;5139811;27;20448;-55
2022/09/11 10:57:26;;;;;;;4.50;3.40;;;;;;;24.78;100.00;96538.41;5140365;27;20100;-54
2022/09/11 11:00:00;;;;;;;3.70;3.20;;;;;;;24.91;100.00;96538.16;5140437;27;20066;-57
2022/09/11 11:02:31;;;;;;;4.45;3.40;;;;;;;24.85;100.00;96536.41;5138865;27;20105;-57
2022/09/11 11:05:04;;;;;;;4.07;3.17;;;;;;;24.62;100.00;96540.69;5136456;27;20109;-53
2022/09/11 11:07:46;;;;;;;4.85;3.05;;;;;;;25.73;100.00;96540.81;5135454;27;20078;-53
2022/09/11 11:10:24;;;;;;;3.22;2.90;;;;;;;26.28;100.00;96531.38;5135236;27;20120;-50
2022/09/11 11:13:06;;;;;;;3.38;3.00;;;;;;;26.07;100.00;96532.88;5140381;27;20042;-57
2022/09/11 11:15:44;;;;;;;4.40;2.72;;;;;;;25.57;100.00;96528.91;5143677;27;20070;-55
2022/09/11 11:18:31;;;;;;;3.92;2.53;;;;;;;25.43;100.00;96534.78;5137853;27;21603;-51
2022/09/11 11:21:08;;;;;;;2.60;2.40;;;;;;;25.68;100.00;96546.13;5134597;27;20063;-49
2022/09/11 11:23:51;;;;;;;3.10;2.30;;;;;;;25.94;100.00;96552.06;5142369;27;20078;-51
2022/09/11 11:26:35;;;;;;;2.75;2.53;;;;;;;26.36;100.00;96543.69;5140462;27;20059;-51
2022/09/11 11:29:32;;;;;;;2.60;2.40;;;;;;;26.17;100.00;96538.47;5139224;27;20069;-50
2022/09/11 11:32:26;;;;;;;2.97;2.10;;;;;;;25.29;100.00;96551.25;5134200;27;20118;-56
2022/09/11 11:35:12;;;;;;;2.50;2.20;;;;;;;25.93;100.00;96553.16;5134952;27;20078;-57
2022/09/11 11:37:42;;;;;;;2.72;2.38;;;;;;;26.11;100.00;96544.84;5136084;27;20075;-52
2022/09/11 11:40:17;;;;;;;4.93;2.58;;;;;;;26.20;100.00;96546.13;5135440;27;20073;-52
2022/09/11 11:42:50;;;;;;;3.03;2.10;;;;;;;26.36;100.00;96544.53;5136457;27;20097;-54
2022/09/11 11:45:26;;;;;;;2.17;1.95;;;;;;;26.47;100.00;96551.78;5141609;27;20078;-51
2022/09/11 11:47:55;;;;;;;2.63;2.13;;;;;;;26.14;100.00;96551.66;5142748;27;20095;-58